sensor_id;sensor_type;location;lat;lon;timestamp;pressure;altitude;pressure_sealevel;temperature;humidity
76794;BME280;65745;50.278;18.192;2023-04-15T00:02:20;98382.33;;;9.24;84.30
76794;BME280;65745;50.278;18.192;2023-04-15T00:04:52;98388.84;;;9.18;84.02
76794;BME280;65745;50.278;18.192;2023-04-15T00:07:25;98392.79;;;9.09;84.16
76794;BME280;65745;50.278;18.192;2023-04-15T00:09:57;98391.25;;;9.05;83.39
76794;BME280;65745;50.278;18.192;2023-04-15T00:12:30;98393.28;;;8.97;83.92
76794;BME280;65745;50.278;18.192;2023-04-15T00:15:02;98395.85;;;8.92;83.93
76794;BME280;65745;50.278;18.192;2023-04-15T00:17:35;98392.23;;;8.82;84.23
76794;BME280;65745;50.278;18.192;2023-04-15T00:20:10;98394.08;;;8.69;84.72
76794;BME280;65745;50.278;18.192;2023-04-15T00:22:42;98394.23;;;8.63;84.27
76794;BME280;65745;50.278;18.192;2023-04-15T00:25:15;98402.12;;;8.62;83.84
76794;BME280;65745;50.278;18.192;2023-04-15T00:27:47;98401.75;;;8.58;83.56
76794;BME280;65745;50.278;18.192;2023-04-15T00:30:20;98402.60;;;8.53;83.36
76794;BME280;65745;50.278;18.192;2023-04-15T00:32:53;98405.16;;;8.50;83.07
76794;BME280;65745;50.278;18.192;2023-04-15T00:35:26;98405.84;;;8.46;83.01
76794;BME280;65745;50.278;18.192;2023-04-15T00:37:58;98407.17;;;8.35;83.40
76794;BME280;65745;50.278;18.192;2023-04-15T00:40:31;98405.94;;;8.31;83.14
76794;BME280;65745;50.278;18.192;2023-04-15T00:43:03;98404.86;;;8.26;83.09
76794;BME280;65745;50.278;18.192;2023-04-15T00:45:35;98411.70;;;8.21;83.04
76794;BME280;65745;50.278;18.192;2023-04-15T00:48:08;98416.96;;;8.12;82.65
76794;BME280;65745;50.278;18.192;2023-04-15T00:50:41;98411.25;;;8.02;82.56
76794;BME280;65745;50.278;18.192;2023-04-15T00:53:13;98414.83;;;7.99;81.95
76794;BME280;65745;50.278;18.192;2023-04-15T00:55:45;98420.60;;;7.91;82.08
76794;BME280;65745;50.278;18.192;2023-04-15T00:58:18;98428.10;;;7.84;82.06
76794;BME280;65745;50.278;18.192;2023-04-15T01:00:51;98438.51;;;7.77;82.47
76794;BME280;65745;50.278;18.192;2023-04-15T01:03:24;98440.83;;;7.68;82.55
76794;BME280;65745;50.278;18.192;2023-04-15T01:05:57;98440.28;;;7.64;82.53
76794;BME280;65745;50.278;18.192;2023-04-15T01:08:33;98442.34;;;7.63;82.59
76794;BME280;65745;50.278;18.192;2023-04-15T01:11:07;98445.41;;;7.61;82.52
76794;BME280;65745;50.278;18.192;2023-04-15T01:13:39;98449.64;;;7.55;82.41
76794;BME280;65745;50.278;18.192;2023-04-15T01:16:12;98452.98;;;7.45;82.77
76794;BME280;65745;50.278;18.192;2023-04-15T01:18:45;98455.20;;;7.44;82.89
76794;BME280;65745;50.278;18.192;2023-04-15T01:21:18;98461.64;;;7.57;82.73
76794;BME280;65745;50.278;18.192;2023-04-15T01:23:53;98468.77;;;7.69;82.31
76794;BME280;65745;50.278;18.192;2023-04-15T01:26:26;98470.30;;;7.67;82.27
76794;BME280;65745;50.278;18.192;2023-04-15T01:28:58;98471.70;;;7.69;82.66
76794;BME280;65745;50.278;18.192;2023-04-15T01:31:31;98478.97;;;7.80;82.34
76794;BME280;65745;50.278;18.192;2023-04-15T01:34:03;98480.54;;;7.83;82.01
76794;BME280;65745;50.278;18.192;2023-04-15T01:36:36;98479.35;;;7.85;81.78
76794;BME280;65745;50.278;18.192;2023-04-15T01:39:08;98484.34;;;7.87;81.91
76794;BME280;65745;50.278;18.192;2023-04-15T01:41:41;98480.61;;;7.91;81.41
76794;BME280;65745;50.278;18.192;2023-04-15T01:44:13;98481.98;;;7.93;81.46
76794;BME280;65745;50.278;18.192;2023-04-15T01:46:46;98481.05;;;7.82;82.17
76794;BME280;65745;50.278;18.192;2023-04-15T01:49:18;98487.57;;;7.82;82.02
76794;BME280;65745;50.278;18.192;2023-04-15T01:51:50;98498.58;;;7.87;81.61
76794;BME280;65745;50.278;18.192;2023-04-15T01:54:24;98500.94;;;7.81;81.60
76794;BME280;65745;50.278;18.192;2023-04-15T01:56:56;98501.59;;;7.79;81.39
76794;BME280;65745;50.278;18.192;2023-04-15T01:59:29;98502.05;;;7.73;81.20
76794;BME280;65745;50.278;18.192;2023-04-15T02:02:02;98502.67;;;7.65;80.72
76794;BME280;65745;50.278;18.192;2023-04-15T02:04:34;98502.23;;;7.54;80.35
76794;BME280;65745;50.278;18.192;2023-04-15T02:07:06;98504.05;;;7.48;80.61
76794;BME280;65745;50.278;18.192;2023-04-15T02:09:38;98495.23;;;7.39;80.55
76794;BME280;65745;50.278;18.192;2023-04-15T02:12:11;98495.52;;;7.33;80.21
76794;BME280;65745;50.278;18.192;2023-04-15T02:14:43;98498.85;;;7.24;80.50
76794;BME280;65745;50.278;18.192;2023-04-15T02:17:15;98505.98;;;7.17;80.54
76794;BME280;65745;50.278;18.192;2023-04-15T02:19:48;98504.73;;;7.14;80.88
76794;BME280;65745;50.278;18.192;2023-04-15T02:22:20;98507.96;;;7.12;80.79
76794;BME280;65745;50.278;18.192;2023-04-15T02:24:52;98515.28;;;7.08;80.58
76794;BME280;65745;50.278;18.192;2023-04-15T02:27:24;98516.25;;;7.03;80.22
76794;BME280;65745;50.278;18.192;2023-04-15T02:29:58;98517.93;;;7.01;80.30
76794;BME280;65745;50.278;18.192;2023-04-15T02:32:30;98527.51;;;6.99;79.82
76794;BME280;65745;50.278;18.192;2023-04-15T02:35:04;98527.29;;;6.96;79.70
76794;BME280;65745;50.278;18.192;2023-04-15T02:37:38;98528.54;;;6.99;79.73
76794;BME280;65745;50.278;18.192;2023-04-15T02:40:14;98526.66;;;7.01;79.42
76794;BME280;65745;50.278;18.192;2023-04-15T02:42:46;98530.86;;;7.06;79.96
76794;BME280;65745;50.278;18.192;2023-04-15T02:45:19;98528.95;;;7.07;79.82
76794;BME280;65745;50.278;18.192;2023-04-15T02:47:54;98526.37;;;7.05;79.69
76794;BME280;65745;50.278;18.192;2023-04-15T02:50:27;98530.45;;;7.02;80.08
76794;BME280;65745;50.278;18.192;2023-04-15T02:52:59;98536.58;;;6.98;79.72
76794;BME280;65745;50.278;18.192;2023-04-15T02:55:32;98537.20;;;6.94;79.87
76794;BME280;65745;50.278;18.192;2023-04-15T02:58:04;98541.20;;;6.85;80.08
76794;BME280;65745;50.278;18.192;2023-04-15T03:00:36;98544.99;;;6.75;80.11
76794;BME280;65745;50.278;18.192;2023-04-15T03:03:09;98545.39;;;6.66;80.14
76794;BME280;65745;50.278;18.192;2023-04-15T03:05:42;98537.35;;;6.66;81.01
76794;BME280;65745;50.278;18.192;2023-04-15T03:08:15;98537.01;;;6.66;80.80
76794;BME280;65745;50.278;18.192;2023-04-15T03:10:47;98538.04;;;6.66;80.53
76794;BME280;65745;50.278;18.192;2023-04-15T03:13:22;98538.95;;;6.58;79.95
76794;BME280;65745;50.278;18.192;2023-04-15T03:15:54;98536.75;;;6.48;79.90
76794;BME280;65745;50.278;18.192;2023-04-15T03:18:26;98541.43;;;6.39;80.02
76794;BME280;65745;50.278;18.192;2023-04-15T03:21:03;98543.16;;;6.40;79.78
76794;BME280;65745;50.278;18.192;2023-04-15T03:23:37;98544.88;;;6.41;79.46
76794;BME280;65745;50.278;18.192;2023-04-15T03:26:10;98547.67;;;6.34;79.26
76794;BME280;65745;50.278;18.192;2023-04-15T03:28:55;98552.98;;;6.33;79.80
76794;BME280;65745;50.278;18.192;2023-04-15T03:31:28;98561.80;;;6.28;80.13
76794;BME280;65745;50.278;18.192;2023-04-15T03:34:00;98565.36;;;6.26;80.04
76794;BME280;65745;50.278;18.192;2023-04-15T03:36:32;98565.11;;;6.22;79.78
76794;BME280;65745;50.278;18.192;2023-04-15T03:39:04;98562.02;;;6.21;79.55
76794;BME280;65745;50.278;18.192;2023-04-15T03:41:36;98565.38;;;6.17;79.41
76794;BME280;65745;50.278;18.192;2023-04-15T03:44:08;98564.13;;;6.13;79.27
76794;BME280;65745;50.278;18.192;2023-04-15T03:46:41;98562.90;;;6.11;79.00
76794;BME280;65745;50.278;18.192;2023-04-15T03:49:14;98569.86;;;6.09;79.07
76794;BME280;65745;50.278;18.192;2023-04-15T03:51:46;98576.48;;;6.06;78.75
76794;BME280;65745;50.278;18.192;2023-04-15T03:54:18;98575.05;;;6.03;79.19
76794;BME280;65745;50.278;18.192;2023-04-15T03:56:50;98575.57;;;6.03;79.21
76794;BME280;65745;50.278;18.192;2023-04-15T03:59:23;98578.13;;;6.02;79.62
76794;BME280;65745;50.278;18.192;2023-04-15T04:01:55;98584.73;;;5.98;79.89
76794;BME280;65745;50.278;18.192;2023-04-15T04:04:27;98587.35;;;6.02;79.17
76794;BME280;65745;50.278;18.192;2023-04-15T04:07:00;98585.55;;;5.96;78.76
76794;BME280;65745;50.278;18.192;2023-04-15T04:09:32;98582.28;;;5.95;78.95
76794;BME280;65745;50.278;18.192;2023-04-15T04:12:04;98582.11;;;5.87;78.80
76794;BME280;65745;50.278;18.192;2023-04-15T04:14:36;98582.08;;;5.76;78.73
76794;BME280;65745;50.278;18.192;2023-04-15T04:17:09;98584.01;;;5.59;79.21
76794;BME280;65745;50.278;18.192;2023-04-15T04:19:41;98590.90;;;5.54;79.33
76794;BME280;65745;50.278;18.192;2023-04-15T04:22:13;98597.27;;;5.47;79.38
76794;BME280;65745;50.278;18.192;2023-04-15T04:24:46;98603.89;;;5.45;79.79
76794;BME280;65745;50.278;18.192;2023-04-15T04:27:18;98612.99;;;5.47;79.96
76794;BME280;65745;50.278;18.192;2023-04-15T04:29:50;98612.30;;;5.56;80.31
76794;BME280;65745;50.278;18.192;2023-04-15T04:32:22;98616.87;;;5.72;79.90
76794;BME280;65745;50.278;18.192;2023-04-15T04:34:54;98613.70;;;5.85;79.46
76794;BME280;65745;50.278;18.192;2023-04-15T04:37:26;98616.56;;;5.91;79.01
76794;BME280;65745;50.278;18.192;2023-04-15T04:39:58;98624.52;;;5.97;78.27
76794;BME280;65745;50.278;18.192;2023-04-15T04:42:30;98624.96;;;5.93;78.71
76794;BME280;65745;50.278;18.192;2023-04-15T04:45:03;98630.94;;;5.92;78.94
76794;BME280;65745;50.278;18.192;2023-04-15T04:47:35;98635.98;;;5.88;79.35
76794;BME280;65745;50.278;18.192;2023-04-15T04:50:09;98632.59;;;5.89;79.69
76794;BME280;65745;50.278;18.192;2023-04-15T04:52:41;98631.38;;;5.99;79.53
76794;BME280;65745;50.278;18.192;2023-04-15T04:55:13;98635.87;;;6.01;79.99
76794;BME280;65745;50.278;18.192;2023-04-15T04:57:45;98638.30;;;6.12;79.88
76794;BME280;65745;50.278;18.192;2023-04-15T05:00:18;98637.77;;;6.32;80.02
76794;BME280;65745;50.278;18.192;2023-04-15T05:02:50;98637.11;;;6.44;79.72
76794;BME280;65745;50.278;18.192;2023-04-15T05:05:23;98635.15;;;6.62;79.58
76794;BME280;65745;50.278;18.192;2023-04-15T05:07:55;98645.50;;;6.68;79.57
76794;BME280;65745;50.278;18.192;2023-04-15T05:10:28;98657.69;;;6.58;79.75
76794;BME280;65745;50.278;18.192;2023-04-15T05:13:00;98652.34;;;6.67;79.58
76794;BME280;65745;50.278;18.192;2023-04-15T05:15:32;98654.42;;;6.80;79.34
76794;BME280;65745;50.278;18.192;2023-04-15T05:18:06;98656.31;;;6.81;79.43
76794;BME280;65745;50.278;18.192;2023-04-15T05:20:39;98648.27;;;6.80;79.40
76794;BME280;65745;50.278;18.192;2023-04-15T05:23:11;98634.57;;;6.92;79.40
76794;BME280;65745;50.278;18.192;2023-04-15T05:25:43;98639.35;;;7.04;79.73
76794;BME280;65745;50.278;18.192;2023-04-15T05:28:16;98627.40;;;7.20;79.86
76794;BME280;65745;50.278;18.192;2023-04-15T05:30:48;98622.84;;;7.38;79.92
76794;BME280;65745;50.278;18.192;2023-04-15T05:33:20;98624.86;;;7.51;79.34
76794;BME280;65745;50.278;18.192;2023-04-15T05:35:53;98625.70;;;7.64;79.27
76794;BME280;65745;50.278;18.192;2023-04-15T05:38:25;98625.94;;;7.71;79.13
76794;BME280;65745;50.278;18.192;2023-04-15T05:40:57;98626.36;;;7.78;78.95
76794;BME280;65745;50.278;18.192;2023-04-15T05:43:29;98625.42;;;7.86;79.03
76794;BME280;65745;50.278;18.192;2023-04-15T05:46:01;98631.27;;;7.88;79.11
76794;BME280;65745;50.278;18.192;2023-04-15T05:48:34;98629.75;;;7.91;79.48
76794;BME280;65745;50.278;18.192;2023-04-15T05:51:06;98627.45;;;8.02;79.36
76794;BME280;65745;50.278;18.192;2023-04-15T05:53:40;98630.17;;;8.17;78.97
76794;BME280;65745;50.278;18.192;2023-04-15T05:56:12;98632.42;;;8.20;78.67
76794;BME280;65745;50.278;18.192;2023-04-15T05:58:44;98633.13;;;8.23;78.70
76794;BME280;65745;50.278;18.192;2023-04-15T06:01:16;98637.33;;;8.30;78.78
76794;BME280;65745;50.278;18.192;2023-04-15T06:03:48;98642.91;;;8.40;78.68
76794;BME280;65745;50.278;18.192;2023-04-15T06:06:21;98646.58;;;8.46;78.57
76794;BME280;65745;50.278;18.192;2023-04-15T06:08:54;98654.67;;;8.49;77.67
76794;BME280;65745;50.278;18.192;2023-04-15T06:11:27;98654.70;;;8.54;78.18
76794;BME280;65745;50.278;18.192;2023-04-15T06:13:59;98654.74;;;8.59;77.63
76794;BME280;65745;50.278;18.192;2023-04-15T06:16:31;98656.50;;;8.65;78.25
76794;BME280;65745;50.278;18.192;2023-04-15T06:19:03;98653.92;;;8.65;76.73
76794;BME280;65745;50.278;18.192;2023-04-15T06:21:36;98656.63;;;8.59;75.65
76794;BME280;65745;50.278;18.192;2023-04-15T06:24:08;98661.77;;;8.60;76.52
76794;BME280;65745;50.278;18.192;2023-04-15T06:26:41;98662.69;;;8.65;75.99
76794;BME280;65745;50.278;18.192;2023-04-15T06:29:13;98666.30;;;8.66;75.76
76794;BME280;65745;50.278;18.192;2023-04-15T06:31:45;98668.23;;;8.71;75.33
76794;BME280;65745;50.278;18.192;2023-04-15T06:34:18;98674.42;;;8.76;75.18
76794;BME280;65745;50.278;18.192;2023-04-15T06:36:50;98675.52;;;8.84;75.52
76794;BME280;65745;50.278;18.192;2023-04-15T06:39:24;98678.31;;;8.89;75.29
76794;BME280;65745;50.278;18.192;2023-04-15T06:41:56;98681.08;;;8.93;74.43
76794;BME280;65745;50.278;18.192;2023-04-15T06:44:29;98678.69;;;8.93;74.77
76794;BME280;65745;50.278;18.192;2023-04-15T06:47:03;98676.34;;;9.05;74.74
76794;BME280;65745;50.278;18.192;2023-04-15T06:49:36;98675.88;;;9.11;75.14
76794;BME280;65745;50.278;18.192;2023-04-15T06:52:08;98678.17;;;9.24;74.88
76794;BME280;65745;50.278;18.192;2023-04-15T06:54:41;98677.56;;;9.39;75.41
76794;BME280;65745;50.278;18.192;2023-04-15T06:57:13;98682.63;;;9.58;75.18
76794;BME280;65745;50.278;18.192;2023-04-15T06:59:46;98676.88;;;9.79;74.43
76794;BME280;65745;50.278;18.192;2023-04-15T07:02:18;98680.71;;;10.02;74.40
76794;BME280;65745;50.278;18.192;2023-04-15T07:04:50;98685.09;;;10.27;74.41
76794;BME280;65745;50.278;18.192;2023-04-15T07:07:22;98684.95;;;10.49;73.99
76794;BME280;65745;50.278;18.192;2023-04-15T07:09:55;98687.02;;;10.71;73.85
76794;BME280;65745;50.278;18.192;2023-04-15T07:12:27;98684.92;;;10.99;73.98
76794;BME280;65745;50.278;18.192;2023-04-15T07:15:00;98682.64;;;11.23;73.07
76794;BME280;65745;50.278;18.192;2023-04-15T07:17:32;98687.23;;;11.46;73.34
76794;BME280;65745;50.278;18.192;2023-04-15T07:20:06;98685.79;;;11.62;72.48
76794;BME280;65745;50.278;18.192;2023-04-15T07:22:39;98683.86;;;11.73;72.65
76794;BME280;65745;50.278;18.192;2023-04-15T07:25:11;98687.06;;;11.93;71.56
76794;BME280;65745;50.278;18.192;2023-04-15T07:27:43;98686.45;;;12.10;71.72
76794;BME280;65745;50.278;18.192;2023-04-15T07:30:16;98685.98;;;12.30;70.92
76794;BME280;65745;50.278;18.192;2023-04-15T07:32:49;98686.69;;;12.53;69.99
76794;BME280;65745;50.278;18.192;2023-04-15T07:35:21;98692.11;;;12.66;68.44
76794;BME280;65745;50.278;18.192;2023-04-15T07:37:53;98692.01;;;12.78;68.23
76794;BME280;65745;50.278;18.192;2023-04-15T07:40:26;98689.56;;;12.99;68.17
76794;BME280;65745;50.278;18.192;2023-04-15T07:42:58;98693.21;;;13.20;67.29
76794;BME280;65745;50.278;18.192;2023-04-15T07:45:30;98688.44;;;13.29;65.56
76794;BME280;65745;50.278;18.192;2023-04-15T07:48:03;98691.95;;;13.40;65.73
76794;BME280;65745;50.278;18.192;2023-04-15T07:50:36;98692.20;;;13.49;64.68
76794;BME280;65745;50.278;18.192;2023-04-15T07:53:09;98695.89;;;13.44;64.32
76794;BME280;65745;50.278;18.192;2023-04-15T07:55:41;98698.17;;;13.41;64.49
76794;BME280;65745;50.278;18.192;2023-04-15T07:58:13;98703.64;;;13.47;63.68
76794;BME280;65745;50.278;18.192;2023-04-15T08:00:45;98699.93;;;13.53;64.20
76794;BME280;65745;50.278;18.192;2023-04-15T08:03:17;98702.85;;;13.56;63.65
76794;BME280;65745;50.278;18.192;2023-04-15T08:05:50;98705.11;;;13.56;62.44
76794;BME280;65745;50.278;18.192;2023-04-15T08:08:22;98705.32;;;13.52;62.27
76794;BME280;65745;50.278;18.192;2023-04-15T08:10:55;98706.73;;;13.49;62.41
76794;BME280;65745;50.278;18.192;2023-04-15T08:13:27;98704.00;;;13.46;61.61
76794;BME280;65745;50.278;18.192;2023-04-15T08:16:18;98706.92;;;13.48;62.36
76794;BME280;65745;50.278;18.192;2023-04-15T08:18:51;98708.84;;;13.47;61.09
76794;BME280;65745;50.278;18.192;2023-04-15T08:21:24;98710.50;;;13.52;62.20
76794;BME280;65745;50.278;18.192;2023-04-15T08:23:57;98705.25;;;13.57;60.99
76794;BME280;65745;50.278;18.192;2023-04-15T08:26:30;98706.88;;;13.53;60.41
76794;BME280;65745;50.278;18.192;2023-04-15T08:29:02;98698.69;;;13.57;60.31
76794;BME280;65745;50.278;18.192;2023-04-15T08:31:35;98700.43;;;13.70;59.49
76794;BME280;65745;50.278;18.192;2023-04-15T08:34:07;98700.86;;;13.77;59.69
76794;BME280;65745;50.278;18.192;2023-04-15T08:36:41;98701.27;;;13.99;61.68
76794;BME280;65745;50.278;18.192;2023-04-15T08:42:26;98706.88;;;14.08;57.93
76794;BME280;65745;50.278;18.192;2023-04-15T08:45:04;98710.67;;;14.09;58.85
76794;BME280;65745;50.278;18.192;2023-04-15T08:47:40;98711.90;;;14.20;57.75
76794;BME280;65745;50.278;18.192;2023-04-15T08:50:15;98711.36;;;14.22;56.88
76794;BME280;65745;50.278;18.192;2023-04-15T08:52:47;98714.98;;;14.36;57.76
76794;BME280;65745;50.278;18.192;2023-04-15T08:55:20;98713.67;;;14.43;57.18
76794;BME280;65745;50.278;18.192;2023-04-15T08:57:53;98712.39;;;14.37;56.76
76794;BME280;65745;50.278;18.192;2023-04-15T09:00:26;98717.06;;;14.34;56.64
76794;BME280;65745;50.278;18.192;2023-04-15T09:02:59;98718.60;;;14.24;55.63
76794;BME280;65745;50.278;18.192;2023-04-15T09:05:33;98715.89;;;14.07;55.55
76794;BME280;65745;50.278;18.192;2023-04-15T09:08:06;98714.54;;;14.04;56.25
76794;BME280;65745;50.278;18.192;2023-04-15T09:10:38;98713.23;;;13.99;55.44
76794;BME280;65745;50.278;18.192;2023-04-15T09:13:11;98710.62;;;13.99;55.72
76794;BME280;65745;50.278;18.192;2023-04-15T09:15:43;98711.23;;;14.19;56.41
76794;BME280;65745;50.278;18.192;2023-04-15T09:18:27;98706.83;;;14.37;56.36
76794;BME280;65745;50.278;18.192;2023-04-15T09:21:06;98713.41;;;14.61;55.80
76794;BME280;65745;50.278;18.192;2023-04-15T09:23:53;98715.17;;;14.81;54.99
76794;BME280;65745;50.278;18.192;2023-04-15T09:26:33;98710.85;;;15.01;54.78
76794;BME280;65745;50.278;18.192;2023-04-15T09:29:07;98707.42;;;15.09;54.07
76794;BME280;65745;50.278;18.192;2023-04-15T09:31:40;98708.04;;;15.13;52.81
76794;BME280;65745;50.278;18.192;2023-04-15T09:34:13;98708.41;;;15.31;53.26
76794;BME280;65745;50.278;18.192;2023-04-15T09:36:55;98704.71;;;15.34;53.29
76794;BME280;65745;50.278;18.192;2023-04-15T09:39:27;98704.73;;;15.33;52.46
76794;BME280;65745;50.278;18.192;2023-04-15T09:42:16;98706.27;;;15.43;52.81
76794;BME280;65745;50.278;18.192;2023-04-15T09:44:54;98709.50;;;15.67;53.44
76794;BME280;65745;50.278;18.192;2023-04-15T09:47:29;98711.34;;;15.79;53.87
76794;BME280;65745;50.278;18.192;2023-04-15T09:50:02;98710.36;;;15.84;52.00
76794;BME280;65745;50.278;18.192;2023-04-15T09:52:41;98716.63;;;16.00;51.50
76794;BME280;65745;50.278;18.192;2023-04-15T09:55:16;98709.98;;;16.10;49.53
76794;BME280;65745;50.278;18.192;2023-04-15T09:57:49;98711.08;;;15.91;49.71
76794;BME280;65745;50.278;18.192;2023-04-15T10:00:21;98712.40;;;15.60;51.55
76794;BME280;65745;50.278;18.192;2023-04-15T10:02:53;98715.98;;;15.53;51.81
76794;BME280;65745;50.278;18.192;2023-04-15T10:05:26;98713.24;;;15.87;51.31
76794;BME280;65745;50.278;18.192;2023-04-15T10:08:00;98710.04;;;16.23;51.12
76794;BME280;65745;50.278;18.192;2023-04-15T10:10:34;98709.67;;;16.47;50.53
76794;BME280;65745;50.278;18.192;2023-04-15T10:13:07;98712.22;;;16.80;49.97
76794;BME280;65745;50.278;18.192;2023-04-15T10:15:44;98704.08;;;17.07;50.73
76794;BME280;65745;50.278;18.192;2023-04-15T10:18:19;98702.08;;;17.49;49.58
76794;BME280;65745;50.278;18.192;2023-04-15T10:20:53;98704.27;;;17.90;49.11
76794;BME280;65745;50.278;18.192;2023-04-15T10:23:25;98701.77;;;18.10;47.37
76794;BME280;65745;50.278;18.192;2023-04-15T10:25:59;98702.04;;;18.07;47.23
76794;BME280;65745;50.278;18.192;2023-04-15T10:28:31;98698.38;;;17.64;47.58
76794;BME280;65745;50.278;18.192;2023-04-15T10:31:05;98704.15;;;17.17;47.02
76794;BME280;65745;50.278;18.192;2023-04-15T10:33:38;98706.08;;;16.96;47.58
76794;BME280;65745;50.278;18.192;2023-04-15T10:36:12;98705.64;;;16.79;46.84
76794;BME280;65745;50.278;18.192;2023-04-15T10:38:45;98704.48;;;16.62;47.69
76794;BME280;65745;50.278;18.192;2023-04-15T10:41:20;98703.20;;;16.49;47.66
76794;BME280;65745;50.278;18.192;2023-04-15T10:43:53;98702.52;;;16.34;47.16
76794;BME280;65745;50.278;18.192;2023-04-15T10:46:37;98701.86;;;16.92;47.84
76794;BME280;65745;50.278;18.192;2023-04-15T10:49:26;98702.00;;;17.39;47.38
76794;BME280;65745;50.278;18.192;2023-04-15T10:52:00;98698.78;;;17.42;47.46
76794;BME280;65745;50.278;18.192;2023-04-15T10:54:33;98696.48;;;17.37;47.04
76794;BME280;65745;50.278;18.192;2023-04-15T10:57:21;98690.13;;;17.21;47.03
76794;BME280;65745;50.278;18.192;2023-04-15T11:00:11;98694.63;;;17.28;46.89
76794;BME280;65745;50.278;18.192;2023-04-15T11:02:46;98695.70;;;17.47;46.82
76794;BME280;65745;50.278;18.192;2023-04-15T11:05:20;98693.75;;;17.86;47.16
76794;BME280;65745;50.278;18.192;2023-04-15T11:07:54;98690.27;;;18.32;45.68
76794;BME280;65745;50.278;18.192;2023-04-15T11:10:52;98695.25;;;18.06;44.97
76794;BME280;65745;50.278;18.192;2023-04-15T11:13:30;98692.64;;;17.58;45.02
76794;BME280;65745;50.278;18.192;2023-04-15T11:16:04;98694.36;;;17.32;44.68
76794;BME280;65745;50.278;18.192;2023-04-15T11:18:37;98694.97;;;17.02;45.38
76794;BME280;65745;50.278;18.192;2023-04-15T11:21:09;98701.89;;;16.83;45.66
76794;BME280;65745;50.278;18.192;2023-04-15T11:23:42;98706.55;;;16.54;46.44
76794;BME280;65745;50.278;18.192;2023-04-15T11:26:17;98708.42;;;16.34;46.11
76794;BME280;65745;50.278;18.192;2023-04-15T11:28:49;98710.43;;;16.13;46.82
76794;BME280;65745;50.278;18.192;2023-04-15T11:31:21;98714.33;;;16.17;47.73
76794;BME280;65745;50.278;18.192;2023-04-15T11:33:58;98716.25;;;16.26;47.08
76794;BME280;65745;50.278;18.192;2023-04-15T11:36:32;98717.44;;;16.58;47.02
76794;BME280;65745;50.278;18.192;2023-04-15T11:39:07;98713.60;;;17.09;46.74
76794;BME280;65745;50.278;18.192;2023-04-15T11:41:41;98707.10;;;18.00;47.07
76794;BME280;65745;50.278;18.192;2023-04-15T11:44:18;98703.06;;;18.81;45.44
76794;BME280;65745;50.278;18.192;2023-04-15T11:46:50;98706.12;;;18.89;43.86
76794;BME280;65745;50.278;18.192;2023-04-15T11:49:31;98706.90;;;18.91;44.06
76794;BME280;65745;50.278;18.192;2023-04-15T11:52:11;98708.92;;;19.20;44.84
76794;BME280;65745;50.278;18.192;2023-04-15T11:54:43;98711.31;;;19.76;44.45
76794;BME280;65745;50.278;18.192;2023-04-15T11:57:15;98707.09;;;20.42;42.44
76794;BME280;65745;50.278;18.192;2023-04-15T11:59:48;98709.48;;;20.92;41.81
76794;BME280;65745;50.278;18.192;2023-04-15T12:02:20;98707.63;;;20.77;40.72
76794;BME280;65745;50.278;18.192;2023-04-15T12:05:07;98708.30;;;20.77;41.15
76794;BME280;65745;50.278;18.192;2023-04-15T12:07:59;98705.30;;;21.00;41.56
76794;BME280;65745;50.278;18.192;2023-04-15T12:10:34;98704.61;;;21.33;40.23
76794;BME280;65745;50.278;18.192;2023-04-15T12:13:10;98703.81;;;21.75;41.41
76794;BME280;65745;50.278;18.192;2023-04-15T12:15:42;98706.90;;;22.00;40.33
76794;BME280;65745;50.278;18.192;2023-04-15T12:18:19;98712.20;;;22.37;40.05
76794;BME280;65745;50.278;18.192;2023-04-15T12:20:52;98711.02;;;22.69;37.46
76794;BME280;65745;50.278;18.192;2023-04-15T12:23:24;98708.98;;;22.35;35.71
76794;BME280;65745;50.278;18.192;2023-04-15T12:25:56;98709.01;;;21.64;35.02
76794;BME280;65745;50.278;18.192;2023-04-15T12:28:30;98706.09;;;21.51;37.74
76794;BME280;65745;50.278;18.192;2023-04-15T12:31:08;98711.25;;;21.30;37.30
76794;BME280;65745;50.278;18.192;2023-04-15T12:33:41;98706.23;;;21.36;38.38
76794;BME280;65745;50.278;18.192;2023-04-15T12:36:14;98701.92;;;21.50;38.50
76794;BME280;65745;50.278;18.192;2023-04-15T12:38:46;98702.27;;;22.36;38.63
76794;BME280;65745;50.278;18.192;2023-04-15T12:41:20;98701.00;;;23.12;37.52
76794;BME280;65745;50.278;18.192;2023-04-15T12:43:54;98695.84;;;23.41;35.29
76794;BME280;65745;50.278;18.192;2023-04-15T12:46:26;98697.05;;;24.27;36.65
76794;BME280;65745;50.278;18.192;2023-04-15T12:48:59;98700.36;;;25.12;34.87
76794;BME280;65745;50.278;18.192;2023-04-15T12:51:31;98699.52;;;25.32;33.05
76794;BME280;65745;50.278;18.192;2023-04-15T12:54:03;98702.92;;;25.52;32.93
76794;BME280;65745;50.278;18.192;2023-04-15T12:56:36;98699.67;;;25.36;31.75
76794;BME280;65745;50.278;18.192;2023-04-15T12:59:08;98702.33;;;24.99;31.99
76794;BME280;65745;50.278;18.192;2023-04-15T13:01:40;98704.96;;;24.37;32.69
76794;BME280;65745;50.278;18.192;2023-04-15T13:04:13;98703.27;;;23.88;33.46
76794;BME280;65745;50.278;18.192;2023-04-15T13:06:46;98707.25;;;23.62;34.17
76794;BME280;65745;50.278;18.192;2023-04-15T13:09:18;98709.84;;;23.18;33.22
76794;BME280;65745;50.278;18.192;2023-04-15T13:11:51;98707.76;;;22.82;33.55
76794;BME280;65745;50.278;18.192;2023-04-15T13:14:24;98711.30;;;22.34;35.14
76794;BME280;65745;50.278;18.192;2023-04-15T13:16:57;98714.73;;;22.01;35.11
76794;BME280;65745;50.278;18.192;2023-04-15T13:19:29;98716.31;;;21.42;33.82
76794;BME280;65745;50.278;18.192;2023-04-15T13:22:01;98721.98;;;20.77;34.35
76794;BME280;65745;50.278;18.192;2023-04-15T13:24:34;98721.95;;;20.47;35.66
76794;BME280;65745;50.278;18.192;2023-04-15T13:27:06;98719.38;;;20.27;34.99
76794;BME280;65745;50.278;18.192;2023-04-15T13:29:39;98716.54;;;20.77;36.76
76794;BME280;65745;50.278;18.192;2023-04-15T13:32:12;98708.83;;;22.15;36.26